createdAt,value
2022-10-29T00:01:04.585Z,7.80
2022-10-29T00:03:32.243Z,7.80
2022-10-29T00:06:05.606Z,7.80
2022-10-29T00:08:35.287Z,7.70
2022-10-29T00:11:12.498Z,7.70
2022-10-29T00:13:40.415Z,7.70
2022-10-29T00:16:17.687Z,7.80
2022-10-29T00:18:45.496Z,7.80
2022-10-29T00:21:21.105Z,7.70
2022-10-29T00:23:49.432Z,7.70
2022-10-29T00:26:18.895Z,7.70
2022-10-29T00:28:49.733Z,7.70
2022-10-29T00:31:24.842Z,7.60
2022-10-29T00:33:54.389Z,7.60
2022-10-29T00:36:26.896Z,7.60
2022-10-29T00:38:55.055Z,7.60
2022-10-29T00:41:26.688Z,7.50
2022-10-29T00:44:20.555Z,7.50
2022-10-29T00:47:18.541Z,7.60
2022-10-29T00:49:56.670Z,7.60
2022-10-29T00:52:28.870Z,7.60
2022-10-29T00:54:58.062Z,7.60
2022-10-29T00:57:40.784Z,7.60
2022-10-29T01:00:09.236Z,7.60
2022-10-29T01:02:38.887Z,7.60
2022-10-29T01:05:08.073Z,7.50
2022-10-29T01:07:35.879Z,7.60
2022-10-29T01:10:04.037Z,7.60
2022-10-29T01:12:46.590Z,7.60
2022-10-29T01:15:31.897Z,7.70
2022-10-29T01:18:20.995Z,7.70
2022-10-29T01:21:30.145Z,7.60
2022-10-29T01:24:31.491Z,7.60
2022-10-29T01:27:26.774Z,7.60
2022-10-29T01:30:04.227Z,7.50
2022-10-29T01:32:37.844Z,7.60
2022-10-29T01:35:15.708Z,7.50
2022-10-29T01:38:02.567Z,7.60
2022-10-29T01:40:44.753Z,7.60
2022-10-29T01:43:43.919Z,7.60
2022-10-29T01:46:15.151Z,7.50
2022-10-29T01:48:52.976Z,7.60
2022-10-29T01:51:34.379Z,7.60
2022-10-29T01:54:06.164Z,7.50
2022-10-29T01:56:33.738Z,7.50
2022-10-29T01:59:05.644Z,7.50
2022-10-29T02:01:58.270Z,7.50
2022-10-29T02:04:58.785Z,7.50
2022-10-29T02:07:40.811Z,7.50
2022-10-29T02:10:29.369Z,7.50
2022-10-29T02:12:57.720Z,7.50
2022-10-29T02:15:36.040Z,7.50
2022-10-29T02:18:08.604Z,7.40
2022-10-29T02:20:42.183Z,7.30
2022-10-29T02:23:10.486Z,7.30
2022-10-29T02:25:38.162Z,7.30
2022-10-29T02:28:06.032Z,7.20
2022-10-29T02:30:34.118Z,7.20
2022-10-29T02:33:01.812Z,7.20
2022-10-29T02:35:29.548Z,7.20
2022-10-29T02:38:00.292Z,7.30
2022-10-29T02:40:27.910Z,7.30
2022-10-29T02:42:56.333Z,7.30
2022-10-29T02:45:24.213Z,7.30
2022-10-29T02:47:51.888Z,7.30
2022-10-29T02:50:19.549Z,7.30
2022-10-29T02:52:47.363Z,7.30
2022-10-29T02:55:15.044Z,7.20
2022-10-29T02:57:46.401Z,7.20
2022-10-29T03:00:14.797Z,7.10
2022-10-29T03:02:42.583Z,7.10
2022-10-29T03:05:10.770Z,7.10
2022-10-29T03:07:41.603Z,7.10
2022-10-29T03:10:10.664Z,7.00
2022-10-29T03:12:38.306Z,7.10
2022-10-29T03:15:06.610Z,7.00
2022-10-29T03:17:34.244Z,7.00
2022-10-29T03:20:01.960Z,6.90
2022-10-29T03:22:30.086Z,7.00
2022-10-29T03:24:57.825Z,6.90
2022-10-29T03:27:25.705Z,6.90
2022-10-29T03:29:53.477Z,7.00
2022-10-29T03:32:21.241Z,7.00
2022-10-29T03:34:48.877Z,7.00
2022-10-29T03:37:18.133Z,7.10
2022-10-29T03:39:45.764Z,7.00
2022-10-29T03:42:13.415Z,7.10
2022-10-29T03:44:43.085Z,7.00
2022-10-29T03:47:10.892Z,7.10
2022-10-29T03:49:38.528Z,7.10
2022-10-29T03:52:06.103Z,7.00
2022-10-29T03:54:33.767Z,6.90
2022-10-29T03:57:01.576Z,6.90
2022-10-29T03:59:29.840Z,6.90
2022-10-29T04:01:59.221Z,6.90
2022-10-29T04:04:26.938Z,6.80
2022-10-29T04:06:57.685Z,6.80
2022-10-29T04:09:26.767Z,6.80
2022-10-29T04:11:54.433Z,6.80
2022-10-29T04:14:22.255Z,6.80
2022-10-29T04:16:49.932Z,6.70
2022-10-29T04:19:17.623Z,6.80
2022-10-29T04:30:09.235Z,6.60
2022-10-29T04:32:38.576Z,6.70
2022-10-29T04:35:06.891Z,6.70
2022-10-29T04:37:34.500Z,6.70
2022-10-29T04:40:02.240Z,6.60
2022-10-29T04:42:29.945Z,6.60
2022-10-29T04:44:57.593Z,6.50
2022-10-29T04:47:25.210Z,6.60
2022-10-29T04:49:52.778Z,6.60
2022-10-29T04:52:21.167Z,6.50
2022-10-29T04:54:51.180Z,6.50
2022-10-29T04:57:18.878Z,6.50
2022-10-29T04:59:46.820Z,6.50
2022-10-29T05:02:14.517Z,6.40
2022-10-29T05:04:42.150Z,6.40
2022-10-29T05:07:09.749Z,6.50
2022-10-29T05:09:37.330Z,6.50
2022-10-29T05:12:05.200Z,6.40
2022-10-29T05:14:33.240Z,6.40
2022-10-29T05:17:00.858Z,6.40
2022-10-29T05:19:28.596Z,6.40
2022-10-29T05:21:56.376Z,6.40
2022-10-29T05:24:24.045Z,6.50
2022-10-29T05:26:51.611Z,6.50
2022-10-29T05:29:19.421Z,6.50
2022-10-29T05:31:47.039Z,6.50
2022-10-29T05:34:14.833Z,6.40
2022-10-29T05:36:43.263Z,6.40
2022-10-29T05:39:10.925Z,6.40
2022-10-29T05:41:38.605Z,6.40
2022-10-29T05:44:06.277Z,6.30
2022-10-29T05:46:33.847Z,6.30
2022-10-29T05:49:01.500Z,6.30
2022-10-29T05:51:29.248Z,6.20
2022-10-29T05:53:56.873Z,6.20
2022-10-29T05:56:24.550Z,6.30
2022-10-29T05:58:52.512Z,6.30
2022-10-29T06:01:20.212Z,6.30
2022-10-29T06:03:48.340Z,6.20
2022-10-29T06:06:15.991Z,6.20
2022-10-29T06:08:43.634Z,6.20
2022-10-29T06:11:11.418Z,6.30
2022-10-29T06:13:39.135Z,6.30
2022-10-29T06:16:07.457Z,6.40
2022-10-29T06:18:35.074Z,6.40
2022-10-29T06:21:02.835Z,6.40
2022-10-29T06:23:30.749Z,6.40
2022-10-29T06:26:01.940Z,6.40
2022-10-29T06:28:34.587Z,6.40
2022-10-29T06:31:03.177Z,6.40
2022-10-29T06:33:30.950Z,6.40
2022-10-29T06:36:00.531Z,6.40
2022-10-29T06:38:28.191Z,6.40
2022-10-29T06:40:55.926Z,6.50
2022-10-29T06:43:23.747Z,6.50
2022-10-29T06:45:51.410Z,6.50
2022-10-29T06:48:22.092Z,6.50
2022-10-29T06:50:51.321Z,6.60
2022-10-29T06:53:19.222Z,6.50
2022-10-29T06:55:46.941Z,6.50
2022-10-29T06:58:16.798Z,6.60
2022-10-29T07:00:45.137Z,6.60
2022-10-29T07:03:19.166Z,6.70
2022-10-29T07:05:47.347Z,6.70
2022-10-29T07:08:18.202Z,6.80
2022-10-29T07:10:45.839Z,6.90
2022-10-29T07:13:13.571Z,6.90
2022-10-29T07:15:41.212Z,7.00
2022-10-29T07:18:10.387Z,7.00
2022-10-29T07:20:40.960Z,7.30
2022-10-29T07:23:09.331Z,7.60
2022-10-29T07:25:38.715Z,7.70
2022-10-29T07:28:18.077Z,7.90
2022-10-29T07:30:45.899Z,8.20
2022-10-29T07:33:13.700Z,8.40
2022-10-29T07:35:41.808Z,8.70
2022-10-29T07:38:11.735Z,9.00
2022-10-29T07:40:45.864Z,9.10
2022-10-29T07:43:13.704Z,9.30
2022-10-29T07:45:44.349Z,9.60
2022-10-29T07:48:12.170Z,9.80
2022-10-29T07:50:39.906Z,10.00
2022-10-29T07:53:08.489Z,10.10
2022-10-29T07:55:36.390Z,10.20
2022-10-29T07:58:10.084Z,10.70
2022-10-29T08:00:39.801Z,11.00
2022-10-29T08:03:08.445Z,10.90
2022-10-29T08:05:36.332Z,11.10
2022-10-29T08:08:05.726Z,11.10
2022-10-29T08:10:35.736Z,11.10
2022-10-29T08:13:05.515Z,11.30
2022-10-29T08:15:35.115Z,11.30
2022-10-29T08:18:04.941Z,11.50
2022-10-29T08:20:32.530Z,10.80
2022-10-29T08:23:02.940Z,10.90
2022-10-29T08:25:30.773Z,10.90
2022-10-29T08:28:12.225Z,11.50
2022-10-29T08:30:41.059Z,11.60
2022-10-29T08:33:10.831Z,11.50
2022-10-29T08:35:38.458Z,11.50
2022-10-29T08:38:06.348Z,11.60
2022-10-29T08:40:48.408Z,11.70
2022-10-29T08:43:48.518Z,12.10
2022-10-29T08:46:29.727Z,12.10
2022-10-29T08:49:03.284Z,12.40
2022-10-29T08:51:34.640Z,12.40
2022-10-29T08:54:25.573Z,12.60
2022-10-29T08:57:43.883Z,12.80
2022-10-29T09:00:19.617Z,13.00
2022-10-29T09:03:20.813Z,13.00
2022-10-29T09:06:40.492Z,13.60
2022-10-29T09:12:53.208Z,14.20
2022-10-29T09:16:11.723Z,14.20
2022-10-29T09:19:03.789Z,14.60
2022-10-29T09:21:55.494Z,14.70
2022-10-29T09:24:35.698Z,15.00
2022-10-29T09:27:20.589Z,15.10
2022-10-29T09:30:14.265Z,15.20
2022-10-29T09:32:56.632Z,15.00
2022-10-29T09:35:42.754Z,15.80
2022-10-29T09:38:19.087Z,15.90
2022-10-29T09:40:47.080Z,15.90
2022-10-29T09:43:36.439Z,15.70
2022-10-29T09:46:26.820Z,16.30
2022-10-29T09:49:19.441Z,16.10
2022-10-29T09:52:05.931Z,16.40
2022-10-29T09:54:34.979Z,16.90
2022-10-29T09:57:04.815Z,17.10
2022-10-29T09:59:41.486Z,17.50
2022-10-29T10:02:37.483Z,17.60
2022-10-29T10:05:14.550Z,17.80
2022-10-29T10:07:42.597Z,18.80
2022-10-29T10:10:23.957Z,18.80
2022-10-29T10:12:51.982Z,19.00
2022-10-29T10:15:25.905Z,18.40
2022-10-29T10:18:02.972Z,18.40
2022-10-29T10:20:36.552Z,18.00
2022-10-29T10:23:25.759Z,18.60
2022-10-29T10:26:00.299Z,18.60
2022-10-29T10:28:35.602Z,19.30
2022-10-29T10:31:16.859Z,18.70
2022-10-29T10:33:56.307Z,18.90
2022-10-29T10:36:29.575Z,19.20
2022-10-29T10:39:00.089Z,19.20
2022-10-29T10:41:35.449Z,19.10
2022-10-29T10:44:04.854Z,18.90
2022-10-29T10:46:40.656Z,18.60
2022-10-29T10:49:31.389Z,18.60
2022-10-29T10:52:01.679Z,19.40
2022-10-29T10:54:29.465Z,20.00
2022-10-29T10:57:19.532Z,20.80
2022-10-29T11:00:20.934Z,20.90
2022-10-29T11:03:09.111Z,21.60
2022-10-29T11:05:58.378Z,21.50
2022-10-29T11:08:51.768Z,22.30
2022-10-29T11:11:25.978Z,23.30
2022-10-29T11:13:58.554Z,23.80
2022-10-29T11:16:58.317Z,23.30
2022-10-29T11:19:54.652Z,23.30
2022-10-29T11:22:22.566Z,22.40
2022-10-29T11:25:19.612Z,22.20
2022-10-29T11:27:59.354Z,21.50
2022-10-29T11:30:31.815Z,21.30
2022-10-29T11:33:35.410Z,21.90
2022-10-29T11:36:18.692Z,21.70
2022-10-29T11:38:51.121Z,22.30
2022-10-29T11:41:24.917Z,22.60
2022-10-29T11:43:55.308Z,23.40
2022-10-29T11:46:55.451Z,23.70
2022-10-29T11:49:51.095Z,23.40
2022-10-29T11:52:47.818Z,24.80
2022-10-29T11:55:18.894Z,25.30
2022-10-29T11:58:12.958Z,25.40
2022-10-29T12:01:01.522Z,25.90
2022-10-29T12:03:41.719Z,25.60
2022-10-29T12:06:20.685Z,25.50
2022-10-29T12:09:25.866Z,26.00
2022-10-29T12:12:28.701Z,25.50
2022-10-29T12:15:25.052Z,25.10
2022-10-29T12:18:05.183Z,22.70
2022-10-29T12:20:51.509Z,22.40
2022-10-29T12:23:41.194Z,21.60
2022-10-29T12:26:27.577Z,20.80
2022-10-29T12:29:19.511Z,20.60
2022-10-29T12:32:03.153Z,20.40
2022-10-29T12:34:37.741Z,20.10
2022-10-29T12:37:20.806Z,20.10
2022-10-29T12:39:55.795Z,20.00
2022-10-29T12:42:26.593Z,20.00
2022-10-29T12:45:13.693Z,20.00
2022-10-29T12:51:51.413Z,21.60
2022-10-29T12:54:31.138Z,21.80
2022-10-29T12:57:14.301Z,22.00
2022-10-29T12:59:47.637Z,21.70
2022-10-29T13:02:30.413Z,22.70
2022-10-29T13:05:09.732Z,24.10
2022-10-29T13:07:59.614Z,25.00
2022-10-29T13:10:30.042Z,25.80
2022-10-29T13:13:19.383Z,24.70
2022-10-29T13:15:58.293Z,23.90
2022-10-29T13:18:51.917Z,22.40
2022-10-29T13:21:58.846Z,21.90
2022-10-29T13:24:27.814Z,21.20
2022-10-29T13:27:06.800Z,20.40
2022-10-29T13:29:44.512Z,20.10
2022-10-29T13:32:35.355Z,19.70
2022-10-29T13:35:24.806Z,19.20
2022-10-29T13:38:10.614Z,18.90
2022-10-29T13:40:39.321Z,18.70
2022-10-29T13:43:53.069Z,18.40
2022-10-29T13:46:51.275Z,18.30
2022-10-29T13:49:30.742Z,18.20
2022-10-29T14:09:42.698Z,17.20
2022-10-29T14:12:18.627Z,16.90
2022-10-29T14:14:53.548Z,16.90
2022-10-29T14:17:21.448Z,16.70
2022-10-29T14:19:51.538Z,16.60
2022-10-29T14:22:29.026Z,16.60
2022-10-29T14:25:22.238Z,16.50
2022-10-29T14:28:31.840Z,16.40
2022-10-29T14:31:05.183Z,16.30
2022-10-29T14:33:38.964Z,16.30
2022-10-29T14:36:26.876Z,16.30
2022-10-29T14:39:58.024Z,16.30
2022-10-29T14:42:34.853Z,16.20
2022-10-29T14:45:14.899Z,16.20
2022-10-29T14:47:43.091Z,16.10
2022-10-29T14:50:17.565Z,16.00
2022-10-29T14:52:53.330Z,16.00
2022-10-29T14:55:28.508Z,15.90
2022-10-29T14:58:15.131Z,15.80
2022-10-29T15:00:58.780Z,15.80
2022-10-29T15:03:33.833Z,15.70
2022-10-29T15:06:19.523Z,15.50
2022-10-29T15:08:56.579Z,15.30
2022-10-29T15:11:40.241Z,15.10
2022-10-29T15:14:32.809Z,15.00
2022-10-29T15:17:01.427Z,14.90
2022-10-29T15:19:29.247Z,14.80
2022-10-29T15:21:57.219Z,14.60
2022-10-29T15:24:26.042Z,14.60
2022-10-29T15:26:57.857Z,14.40
2022-10-29T15:29:34.049Z,14.40
2022-10-29T15:32:18.328Z,14.30
2022-10-29T15:34:59.180Z,14.20
2022-10-29T15:37:42.113Z,14.10
2022-10-29T15:40:22.016Z,14.00
2022-10-29T15:42:50.086Z,13.90
2022-10-29T15:45:24.336Z,13.70
2022-10-29T15:48:15.112Z,13.70
2022-10-29T15:50:44.932Z,13.60
2022-10-29T15:53:17.239Z,13.60
2022-10-29T15:55:45.443Z,13.50
2022-10-29T15:58:16.210Z,13.50
2022-10-29T16:00:44.492Z,13.50
2022-10-29T16:03:24.162Z,13.40
2022-10-29T16:05:56.114Z,13.20
2022-10-29T16:08:35.936Z,13.20
2022-10-29T16:11:07.929Z,13.00
2022-10-29T16:13:36.288Z,13.00
2022-10-29T16:16:04.682Z,13.00
2022-10-29T16:22:35.148Z,12.90
2022-10-29T16:25:05.543Z,12.90
2022-10-29T16:27:35.066Z,12.90
2022-10-29T16:34:45.481Z,12.80
2022-10-29T16:37:21.719Z,12.80
2022-10-29T16:39:49.439Z,12.70
2022-10-29T16:42:37.621Z,12.60
2022-10-29T16:45:07.428Z,12.70
2022-10-29T16:47:34.992Z,12.70
2022-10-29T16:50:02.656Z,12.60
2022-10-29T16:52:30.320Z,12.50
2022-10-29T16:54:57.966Z,12.40
2022-10-29T16:57:26.072Z,12.20
2022-10-29T16:59:53.669Z,12.00
2022-10-29T17:02:21.656Z,12.00
2022-10-29T17:04:49.352Z,12.00
2022-10-29T17:07:17.386Z,12.00
2022-10-29T17:09:45.194Z,12.00
2022-10-29T17:12:12.945Z,12.10
2022-10-29T17:14:43.147Z,12.00
2022-10-29T17:17:10.769Z,11.90
2022-10-29T17:19:38.360Z,11.80
2022-10-29T17:22:20.705Z,11.70
2022-10-29T17:24:50.396Z,11.60
2022-10-29T17:27:25.983Z,11.50
2022-10-29T17:29:56.617Z,11.50
2022-10-29T17:32:28.784Z,11.60
2022-10-29T17:34:56.541Z,11.50
2022-10-29T17:37:24.359Z,11.30
2022-10-29T17:40:47.894Z,11.20
2022-10-29T17:43:15.648Z,11.10
2022-10-29T17:45:45.032Z,11.20
2022-10-29T17:48:12.798Z,11.20
2022-10-29T17:50:40.650Z,11.30
2022-10-29T17:53:08.525Z,11.30
2022-10-29T17:55:36.399Z,11.20
2022-10-29T17:58:04.347Z,11.10
2022-10-29T18:01:04.615Z,11.10
2022-10-29T18:04:00.794Z,11.10
2022-10-29T18:10:10.506Z,11.00
2022-10-29T18:12:38.261Z,10.90
2022-10-29T18:15:06.200Z,11.00
2022-10-29T18:17:33.991Z,11.00
2022-10-29T18:20:01.628Z,11.00
2022-10-29T18:22:29.351Z,10.90
2022-10-29T18:24:57.118Z,10.90
2022-10-29T18:27:24.840Z,10.80
2022-10-29T18:30:04.114Z,10.80
2022-10-29T18:32:31.764Z,10.70
2022-10-29T18:34:59.465Z,10.70
2022-10-29T18:37:27.193Z,10.70
2022-10-29T18:40:02.221Z,10.70
2022-10-29T18:42:32.528Z,10.70
2022-10-29T18:45:00.392Z,10.70
2022-10-29T18:47:28.128Z,10.70
2022-10-29T18:49:58.015Z,10.60
2022-10-29T18:52:25.589Z,10.60
2022-10-29T18:54:53.293Z,10.70
2022-10-29T18:57:21.177Z,10.60
2022-10-29T18:59:49.150Z,10.50
2022-10-29T19:02:17.200Z,10.40
2022-10-29T19:04:44.869Z,10.40
2022-10-29T19:07:18.732Z,10.40
2022-10-29T19:09:53.779Z,10.40
2022-10-29T19:12:47.599Z,10.30
2022-10-29T19:15:15.381Z,10.30
2022-10-29T19:17:43.061Z,10.30
2022-10-29T19:20:11.500Z,10.40
2022-10-29T19:22:39.090Z,10.40
2022-10-29T19:25:07.068Z,10.30
2022-10-29T19:27:34.724Z,10.20
2022-10-29T19:30:02.751Z,10.20
2022-10-29T19:32:30.717Z,10.20
2022-10-29T19:34:58.575Z,10.20
2022-10-29T19:37:28.767Z,10.10
2022-10-29T19:40:11.982Z,10.10
2022-10-29T19:42:39.610Z,10.00
2022-10-29T19:45:07.609Z,10.00
2022-10-29T19:47:35.732Z,9.90
2022-10-29T19:50:08.378Z,9.90
2022-10-29T19:52:36.278Z,10.00
2022-10-29T19:55:04.236Z,10.00
2022-10-29T19:57:31.976Z,9.80
2022-10-29T19:59:59.748Z,9.90
2022-10-29T20:02:27.406Z,9.90
2022-10-29T20:04:55.242Z,9.90
2022-10-29T20:11:48.555Z,9.80
2022-10-29T20:14:16.662Z,9.80
2022-10-29T20:16:44.313Z,9.80
2022-10-29T20:19:12.163Z,9.80
2022-10-29T20:21:39.857Z,9.90
2022-10-29T20:24:07.867Z,9.90
2022-10-29T20:26:35.643Z,9.80
2022-10-29T20:29:03.334Z,9.90
2022-10-29T20:31:33.749Z,9.90
2022-10-29T20:34:03.944Z,9.90
2022-10-29T20:36:32.714Z,9.70
2022-10-29T20:39:00.964Z,9.80
2022-10-29T20:41:28.965Z,9.70
2022-10-29T20:43:59.024Z,9.70
2022-10-29T20:46:27.395Z,9.60
2022-10-29T20:48:55.488Z,9.60
2022-10-29T20:51:24.039Z,9.50
2022-10-29T20:53:52.864Z,9.40
2022-10-29T20:56:22.657Z,9.40
2022-10-29T20:58:50.399Z,9.30
2022-10-29T21:01:20.265Z,9.30
2022-10-29T21:03:52.347Z,9.40
2022-10-29T21:06:20.674Z,9.30
2022-10-29T21:08:50.338Z,9.40
2022-10-29T21:11:19.100Z,9.40
2022-10-29T21:13:47.260Z,9.30
2022-10-29T21:16:23.469Z,9.20
2022-10-29T21:18:53.590Z,9.30
2022-10-29T21:21:21.786Z,9.30
2022-10-29T21:23:49.760Z,9.20
2022-10-29T21:26:22.846Z,9.20
2022-10-29T21:28:51.640Z,9.20
2022-10-29T21:31:20.268Z,9.20
2022-10-29T21:33:52.363Z,9.20
2022-10-29T21:36:20.339Z,9.20
2022-10-29T21:38:48.415Z,9.20
2022-10-29T21:41:16.675Z,9.20
2022-10-29T21:43:44.413Z,9.20
2022-10-29T21:46:12.144Z,9.10
2022-10-29T21:48:39.877Z,9.10
2022-10-29T21:51:30.174Z,9.10
2022-10-29T21:54:01.165Z,9.10
2022-10-29T21:56:30.259Z,9.00
2022-10-29T21:58:57.845Z,8.90
2022-10-29T22:01:25.501Z,9.00
2022-10-29T22:03:53.154Z,9.10
2022-10-29T22:06:22.783Z,9.10
2022-10-29T22:08:57.943Z,9.10
2022-10-29T22:11:28.457Z,9.10
2022-10-29T22:13:56.340Z,8.90
2022-10-29T22:16:23.881Z,8.80
2022-10-29T22:18:51.587Z,8.80
2022-10-29T22:21:21.559Z,8.90
2022-10-29T22:23:58.974Z,8.90
2022-10-29T22:26:29.000Z,8.80
2022-10-29T22:28:56.842Z,8.80
2022-10-29T22:31:24.750Z,8.90
2022-10-29T22:33:52.721Z,8.90
2022-10-29T22:36:25.758Z,8.90
2022-10-29T22:38:57.784Z,8.90
2022-10-29T22:41:26.523Z,9.00
2022-10-29T22:43:54.479Z,9.00
2022-10-29T22:46:22.537Z,9.00
2022-10-29T22:48:50.572Z,9.00
2022-10-29T22:51:23.723Z,8.90
2022-10-29T22:53:52.997Z,8.90
2022-10-29T22:56:26.113Z,8.80
2022-10-29T22:58:54.328Z,8.80
2022-10-29T23:01:28.127Z,8.70
2022-10-29T23:03:56.106Z,8.70
2022-10-29T23:06:24.441Z,8.70
2022-10-29T23:08:53.992Z,8.70
2022-10-29T23:11:24.408Z,8.70
2022-10-29T23:13:57.596Z,8.80
2022-10-29T23:16:27.211Z,8.80
2022-10-29T23:19:01.177Z,8.90
2022-10-29T23:21:29.632Z,8.80
2022-10-29T23:23:57.761Z,8.70
2022-10-29T23:26:29.368Z,8.60
2022-10-29T23:28:57.031Z,8.50
2022-10-29T23:31:26.896Z,8.50
2022-10-29T23:33:56.430Z,8.40
2022-10-29T23:36:25.771Z,8.30
2022-10-29T23:39:01.115Z,8.30
2022-10-29T23:41:30.375Z,8.40
2022-10-29T23:43:58.671Z,8.40
2022-10-29T23:46:26.349Z,8.40
2022-10-29T23:48:54.382Z,8.50
2022-10-29T23:51:22.040Z,8.50
2022-10-29T23:53:53.135Z,8.40
2022-10-29T23:56:25.361Z,8.40
2022-10-29T23:58:52.986Z,8.40
